Time;durP1;ratioP1;P1;durP2;ratioP2;P2;SDS_P1;SDS_P2;PMS_P1;PMS_P2;Temp;Humidity;BMP_temperature;BMP_pressure;BME280_temperature;BME280_humidity;BME280_pressure;Samples;Min_cycle;Max_cycle;Signal;HPM_P1;HPM_P2
2020/12/04 00:00:04;;;;;;;67.03;28.57;;;;;;;-0.77;88.69;100341.63;130166;1090;23152;-62
2020/12/04 00:02:32;;;;;;;106.60;37.03;;;;;;;-0.74;89.87;100340.47;130469;1090;23191;-62
2020/12/04 00:05:00;;;;;;;72.67;29.20;;;;;;;-0.73;89.06;100347.50;130425;1090;23266;-62
2020/12/04 00:07:28;;;;;;;127.07;44.83;;;;;;;-0.71;89.93;100345.47;130492;1089;24586;-61
2020/12/04 00:09:55;;;;;;;105.83;37.33;;;;;;;-0.67;89.73;100343.30;130411;1090;23258;-61
2020/12/04 00:12:25;;;;;;;61.67;25.60;;;;;;;-0.65;89.68;100339.47;130447;1095;23877;-61
2020/12/04 00:14:55;;;;;;;68.60;26.90;;;;;;;-0.62;88.77;100339.14;130456;1090;23325;-61
2020/12/04 00:17:23;;;;;;;81.93;31.73;;;;;;;-0.62;89.25;100341.81;130402;1090;23171;-61
2020/12/04 00:19:51;;;;;;;264.50;82.93;;;;;;;-0.59;89.34;100337.98;130511;1089;23166;-61
2020/12/04 00:22:19;;;;;;;67.70;28.47;;;;;;;-0.61;88.75;100338.14;130364;1089;23904;-61
2020/12/04 00:24:46;;;;;;;84.33;31.90;;;;;;;-0.63;88.79;100323.25;130260;1090;23229;-61
2020/12/04 00:27:14;;;;;;;70.97;27.93;;;;;;;-0.62;88.78;100330.28;130381;1090;23233;-61
2020/12/04 00:29:41;;;;;;;84.27;30.30;;;;;;;-0.61;88.74;100329.28;130558;1090;23172;-61
2020/12/04 00:32:09;;;;;;;54.80;23.03;;;;;;;-0.64;89.06;100325.09;130127;1090;23216;-61
2020/12/04 00:34:40;;;;;;;70.80;29.63;;;;;;;-0.67;89.05;100324.57;130494;1090;23198;-61
2020/12/04 00:37:08;;;;;;;82.33;33.63;;;;;;;-0.68;89.73;100329.09;130385;1090;23178;-62
2020/12/04 00:39:36;;;;;;;164.13;53.87;;;;;;;-0.70;89.39;100331.09;130511;1090;23164;-62
2020/12/04 00:42:03;;;;;;;85.47;29.77;;;;;;;-0.69;89.46;100324.73;130391;1089;23215;-64
2020/12/04 00:44:31;;;;;;;85.70;32.93;;;;;;;-0.68;89.92;100325.58;130494;1089;23694;-63
2020/12/04 00:47:00;;;;;;;150.30;43.87;;;;;;;-0.69;88.80;100316.71;130373;1090;23227;-63
2020/12/04 00:49:33;;;;;;;114.77;39.60;;;;;;;-0.68;89.77;100323.73;130318;1097;23132;-63
2020/12/04 00:52:01;;;;;;;153.07;43.13;;;;;;;-0.66;89.45;100312.87;130148;1090;24158;-63
2020/12/04 00:54:28;;;;;;;132.43;38.53;;;;;;;-0.65;89.79;100314.55;130314;1090;24191;-63
2020/12/04 00:56:57;;;;;;;90.50;33.70;;;;;;;-0.66;89.44;100316.38;130116;1090;23242;-63
2020/12/04 00:59:33;;;;;;;99.67;36.60;;;;;;;-0.65;88.99;100323.41;130293;1089;23144;-63
2020/12/04 01:02:02;;;;;;;59.30;23.80;;;;;;;-0.62;89.14;100317.73;130319;1090;23237;-63
2020/12/04 01:04:29;;;;;;;74.50;26.73;;;;;;;-0.62;89.98;100309.70;130474;1090;23311;-63
2020/12/04 01:06:56;;;;;;;121.73;41.43;;;;;;;-0.58;89.05;100310.22;130276;1090;23161;-63
2020/12/04 01:09:24;;;;;;;67.90;28.05;;;;;;;-0.54;89.73;100314.20;130415;1090;23213;-63
2020/12/04 01:11:52;;;;;;;116.60;42.87;;;;;;;-0.53;88.95;100306.02;130479;1090;23166;-63
2020/12/04 01:14:19;;;;;;;74.57;29.90;;;;;;;-0.51;90.08;100308.53;130373;1090;23178;-63
2020/12/04 01:16:47;;;;;;;51.30;22.20;;;;;;;-0.55;89.77;100313.38;130535;1090;23252;-63
2020/12/04 01:19:14;;;;;;;59.40;24.33;;;;;;;-0.56;89.06;100311.70;130144;1090;23200;-63
2020/12/04 01:21:51;;;;;;;48.87;21.93;;;;;;;-0.59;89.10;100312.05;130568;1095;23213;-63
2020/12/04 01:24:19;;;;;;;56.83;23.77;;;;;;;-0.59;88.74;100311.22;130338;1090;23207;-63
2020/12/04 01:26:46;;;;;;;59.00;24.57;;;;;;;-0.62;89.83;100300.84;130502;1089;23227;-63
2020/12/04 01:29:14;;;;;;;43.23;21.77;;;;;;;-0.63;89.39;100301.84;130412;1090;23246;-63
2020/12/04 01:31:45;;;;;;;76.00;29.67;;;;;;;-0.64;89.54;100292.97;130491;1089;23162;-63
2020/12/04 01:34:13;;;;;;;64.03;24.50;;;;;;;-0.62;90.09;100304.35;130201;1090;23211;-63
2020/12/04 01:36:41;;;;;;;56.63;22.90;;;;;;;-0.61;89.83;100306.03;130297;1093;23385;-63
2020/12/04 01:39:09;;;;;;;48.50;22.30;;;;;;;-0.60;89.42;100304.19;130384;1089;23309;-63
2020/12/04 01:41:37;;;;;;;54.60;23.23;;;;;;;-0.58;89.55;100299.52;130518;1089;23168;-63
2020/12/04 01:44:05;;;;;;;38.90;18.87;;;;;;;-0.58;89.71;100302.19;130163;1090;23149;-63
2020/12/04 01:46:32;;;;;;;57.57;25.97;;;;;;;-0.58;89.74;100295.00;130519;1095;23160;-63
2020/12/04 01:48:59;;;;;;;54.70;24.57;;;;;;;-0.57;89.24;100293.12;130381;1090;23169;-63
2020/12/04 01:51:32;;;;;;;101.60;36.23;;;;;;;-0.57;90.09;100293.12;130449;1089;23215;-63
2020/12/04 01:53:59;;;;;;;70.87;25.33;;;;;;;-0.54;89.07;100295.47;130197;1090;23188;-63
2020/12/04 01:56:29;;;;;;;53.07;23.60;;;;;;;-0.53;89.89;100292.63;130251;1090;23323;-63
2020/12/04 01:58:57;;;;;;;64.13;25.77;;;;;;;-0.50;89.49;100299.50;130265;1093;23222;-62
2020/12/04 02:01:25;;;;;;;51.33;22.93;;;;;;;-0.49;89.29;100296.66;130151;1097;23233;-63
2020/12/04 02:03:52;;;;;;;44.20;19.47;;;;;;;-0.50;90.03;100305.69;130258;1090;23790;-63
2020/12/04 02:06:27;;;;;;;42.30;19.73;;;;;;;-0.50;89.28;100300.33;130124;1097;24202;-63
2020/12/04 02:08:59;;;;;;;63.10;26.43;;;;;;;-0.48;89.12;100297.49;130257;1093;23303;-63
2020/12/04 02:11:26;;;;;;;43.17;19.87;;;;;;;-0.47;89.65;100299.17;130121;1093;23213;-63
2020/12/04 02:13:54;;;;;;;75.80;32.00;;;;;;;-0.46;89.58;100304.36;130247;1097;23246;-63
2020/12/04 02:16:22;;;;;;;46.77;19.93;;;;;;;-0.45;89.95;100300.67;130093;1090;23182;-63
2020/12/04 02:18:50;;;;;;;58.90;24.55;;;;;;;-0.43;89.40;100297.80;130298;1090;23191;-63
2020/12/04 02:21:18;;;;;;;55.70;24.07;;;;;;;-0.44;88.91;100299.67;130116;1090;23289;-63
2020/12/04 02:23:47;;;;;;;68.77;27.00;;;;;;;-0.41;89.04;100295.80;130271;1090;23182;-62
2020/12/04 02:26:15;;;;;;;59.90;25.00;;;;;;;-0.40;88.97;100284.09;130150;1098;23255;-62
2020/12/04 02:28:45;;;;;;;58.17;25.00;;;;;;;-0.41;90.23;100285.93;130253;1093;23299;-62
2020/12/04 02:31:12;;;;;;;44.10;20.30;;;;;;;-0.42;89.80;100286.09;130096;1090;23196;-63
2020/12/04 02:33:41;;;;;;;63.37;27.63;;;;;;;-0.44;90.03;100291.64;130243;1090;23219;-63
2020/12/04 02:36:11;;;;;;;40.20;17.37;;;;;;;-0.44;89.22;100290.81;130097;1090;23270;-63
2020/12/04 02:38:42;;;;;;;44.15;19.20;;;;;;;-0.46;89.76;100296.33;130287;1090;23283;-63
2020/12/04 02:41:09;;;;;;;42.33;20.90;;;;;;;-0.44;89.87;100301.52;130107;1097;24313;-63
2020/12/04 02:43:37;;;;;;;49.40;23.00;;;;;;;-0.44;90.03;100288.13;130262;1090;23187;-63
2020/12/04 02:46:08;;;;;;;46.37;20.30;;;;;;;-0.42;89.99;100291.45;128434;1090;24104;-64
2020/12/04 02:48:36;;;;;;;49.27;22.43;;;;;;;-0.41;90.21;100290.45;130244;1090;23195;-64
2020/12/04 02:51:06;;;;;;;45.20;21.13;;;;;;;-0.41;89.58;100280.58;130227;1098;23240;-64
2020/12/04 02:53:34;;;;;;;44.23;22.00;;;;;;;-0.40;89.83;100279.57;130132;1097;23187;-63
2020/12/04 02:56:01;;;;;;;66.97;27.23;;;;;;;-0.40;89.82;100274.22;130266;1090;23310;-63
2020/12/04 02:58:30;;;;;;;48.07;21.80;;;;;;;-0.41;89.94;100277.06;130173;1090;23216;-63
2020/12/04 03:01:03;;;;;;;50.93;23.97;;;;;;;-0.44;90.01;100280.94;130316;1090;23234;-63
2020/12/04 03:03:30;;;;;;;45.03;21.50;;;;;;;-0.44;89.67;100277.42;130083;1090;23194;-63
2020/12/04 03:05:58;;;;;;;56.53;23.77;;;;;;;-0.44;89.63;100274.75;130275;1097;23331;-63
2020/12/04 03:08:29;;;;;;;47.93;19.50;;;;;;;-0.43;89.68;100273.72;130099;1090;23179;-63
2020/12/04 03:10:57;;;;;;;38.37;17.03;;;;;;;-0.41;89.85;100282.41;130268;1097;23237;-64
2020/12/04 03:13:24;;;;;;;41.93;18.67;;;;;;;-0.41;90.07;100283.25;130136;1090;24481;-63
2020/12/04 03:15:53;;;;;;;61.83;26.93;;;;;;;-0.40;89.01;100279.57;130256;1090;23194;-64
2020/12/04 03:18:21;;;;;;;45.47;21.90;;;;;;;-0.40;89.61;100278.73;130127;1090;23248;-63
2020/12/04 03:20:48;;;;;;;40.13;19.47;;;;;;;-0.41;89.78;100288.61;130240;1090;23240;-63
2020/12/04 03:23:15;;;;;;;41.57;20.80;;;;;;;-0.41;90.29;100285.09;130083;1090;23257;-63
2020/12/04 03:25:43;;;;;;;63.13;25.87;;;;;;;-0.41;89.82;100277.90;130285;1097;23972;-63
2020/12/04 03:28:12;;;;;;;54.63;23.17;;;;;;;-0.38;89.67;100280.25;130124;1090;23237;-63
2020/12/04 03:30:42;;;;;;;56.57;24.67;;;;;;;-0.36;90.07;100277.41;130266;1090;23214;-63
2020/12/04 03:33:09;;;;;;;46.00;21.63;;;;;;;-0.37;90.27;100283.76;130097;1090;23933;-63
2020/12/04 03:35:37;;;;;;;56.00;26.70;;;;;;;-0.36;89.86;100285.44;130223;1090;23169;-63
2020/12/04 03:38:05;;;;;;;43.73;21.37;;;;;;;-0.36;89.69;100280.08;130157;1090;23916;-63
2020/12/04 03:40:33;;;;;;;35.33;17.27;;;;;;;-0.36;89.33;100282.75;130258;1090;23806;-63
2020/12/04 03:43:00;;;;;;;43.30;21.05;;;;;;;-0.32;89.98;100281.42;130286;1090;23181;-63
2020/12/04 03:45:34;;;;;;;47.77;21.93;;;;;;;-0.29;90.11;100282.93;130133;1090;24176;-63
2020/12/04 03:48:01;;;;;;;33.07;16.93;;;;;;;-0.28;89.41;100277.37;130266;1090;23198;-63
2020/12/04 03:50:29;;;;;;;39.77;17.50;;;;;;;-0.25;89.12;100276.20;130137;1090;24192;-63
2020/12/04 03:53:01;;;;;;;33.93;18.07;;;;;;;-0.25;90.06;100270.85;130253;1090;23188;-63
2020/12/04 03:55:28;;;;;;;43.47;20.77;;;;;;;-0.25;89.17;100277.05;130247;1089;23958;-63
2020/12/04 03:57:55;;;;;;;40.77;18.80;;;;;;;-0.26;89.56;100274.53;130415;1090;24522;-63
2020/12/04 04:00:25;;;;;;;39.30;20.17;;;;;;;-0.28;89.94;100266.66;130088;1090;24119;-63
2020/12/04 04:02:53;;;;;;;36.73;18.83;;;;;;;-0.27;89.46;100267.50;130287;1096;23232;-63
2020/12/04 04:05:24;;;;;;;34.73;16.77;;;;;;;-0.28;90.23;100271.19;130348;1089;23218;-63
2020/12/04 04:07:59;;;;;;;34.77;16.73;;;;;;;-0.28;89.30;100274.70;130377;1090;23857;-63
2020/12/04 04:10:26;;;;;;;40.67;17.70;;;;;;;-0.26;89.21;100278.05;130372;1089;23261;-63
2020/12/04 04:13:41;;;;;;;36.47;18.00;;;;;;;-0.25;89.73;100279.72;125701;1097;23593;-61
2020/12/04 04:16:08;;;;;;;33.13;16.10;;;;;;;-0.23;90.50;100287.59;129753;1096;23222;-62
2020/12/04 04:18:37;;;;;;;36.27;17.93;;;;;;;-0.25;90.22;100282.41;130007;1101;23168;-62
2020/12/04 04:21:09;;;;;;;40.07;19.43;;;;;;;-0.24;89.10;100283.23;129787;1095;23238;-62
2020/12/04 04:23:37;;;;;;;35.33;17.10;;;;;;;-0.24;89.36;100289.43;129896;1094;24321;-62
2020/12/04 04:26:05;;;;;;;35.30;15.80;;;;;;;-0.25;89.89;100294.95;128146;1095;26369;-62
2020/12/04 04:28:33;;;;;;;34.30;16.63;;;;;;;-0.25;89.44;100286.92;129927;1096;23246;-62
2020/12/04 04:31:01;;;;;;;33.70;17.47;;;;;;;-0.22;89.53;100281.23;129811;1096;23210;-63
2020/12/04 04:33:28;;;;;;;29.00;15.13;;;;;;;-0.22;89.47;100286.59;129941;1096;23228;-63
2020/12/04 04:35:56;;;;;;;31.27;16.10;;;;;;;-0.21;89.78;100288.26;129776;1096;23739;-63
2020/12/04 04:38:23;;;;;;;37.40;17.57;;;;;;;-0.24;89.89;100276.04;129970;1102;23217;-63
2020/12/04 04:40:56;;;;;;;35.67;17.83;;;;;;;-0.23;90.43;100279.55;129773;1095;23214;-63
2020/12/04 04:43:25;;;;;;;34.35;15.70;;;;;;;-0.21;89.48;100289.09;129919;1094;23264;-63
2020/12/04 04:45:53;;;;;;;34.07;15.50;;;;;;;-0.20;90.39;100290.77;129759;1096;23176;-63
2020/12/04 04:48:24;;;;;;;38.85;18.25;;;;;;;-0.18;90.74;100278.05;129862;1096;23160;-63
2020/12/04 04:50:58;;;;;;;;;;;;;;;-0.17;90.37;100287.76;129804;1096;23291;-63
2020/12/04 04:53:26;;;;;;;33.15;15.48;;;;;;;-0.15;89.97;100295.63;129922;1096;21385;-63
2020/12/04 04:55:55;;;;;;;35.20;16.87;;;;;;;-0.13;89.63;100289.07;128355;1096;23412;-62
2020/12/04 04:58:30;;;;;;;36.70;18.55;;;;;;;-0.12;89.52;100290.74;129922;1095;23262;-63
2020/12/04 05:00:58;;;;;;;59.27;28.13;;;;;;;-0.12;89.90;100284.55;129874;1102;23821;-63
2020/12/04 05:03:25;;;;;;;42.27;19.43;;;;;;;-0.11;89.48;100286.22;129754;1095;24455;-63
2020/12/04 05:05:53;;;;;;;34.43;17.37;;;;;;;-0.08;89.42;100288.57;129929;1096;23227;-63
2020/12/04 05:08:27;;;;;;;35.20;16.07;;;;;;;-0.06;89.88;100275.84;129827;1096;23255;-63
2020/12/04 05:11:09;;;;;;;37.67;17.23;;;;;;;-0.07;89.52;100272.33;129919;1096;23790;-63
2020/12/04 05:13:36;;;;;;;36.33;14.87;;;;;;;-0.04;90.20;100289.91;129810;1096;23356;-63
2020/12/04 05:16:08;;;;;;;35.17;16.57;;;;;;;-0.02;90.11;100279.86;129689;1096;23171;-63
2020/12/04 05:18:35;;;;;;;32.37;16.00;;;;;;;0.03;89.66;100280.16;129693;1096;23215;-62
2020/12/04 05:21:03;;;;;;;40.40;18.83;;;;;;;0.04;90.84;100272.97;129649;1096;23167;-63
2020/12/04 05:23:30;;;;;;;40.30;18.65;;;;;;;0.05;89.70;100283.52;129744;1096;23199;-63
2020/12/04 05:26:01;;;;;;;36.73;17.30;;;;;;;0.05;90.20;100288.03;129937;1095;23321;-63
2020/12/04 05:28:30;;;;;;;35.57;17.20;;;;;;;0.05;90.02;100290.71;129718;1096;23164;-63
2020/12/04 05:31:07;;;;;;;34.27;16.90;;;;;;;0.07;90.28;100284.18;129921;1096;23245;-63
2020/12/04 05:33:36;;;;;;;33.90;15.90;;;;;;;0.09;89.70;100287.53;129794;1095;23216;-63
2020/12/04 05:36:09;;;;;;;36.73;18.47;;;;;;;0.13;89.57;100283.50;129908;1102;23862;-63
2020/12/04 05:38:37;;;;;;;29.70;15.00;;;;;;;0.16;89.72;100282.30;129800;1096;24501;-63
2020/12/04 05:41:08;;;;;;;34.13;16.33;;;;;;;0.16;89.87;100272.42;129658;1096;23388;-63
2020/12/04 05:43:37;;;;;;;31.15;16.85;;;;;;;0.18;89.62;100277.61;129833;1102;23182;-63
2020/12/04 05:46:21;;;;;;;28.90;15.60;;;;;;;0.18;89.90;100282.97;129899;1096;23345;-63
2020/12/04 05:49:04;;;;;;;38.23;16.87;;;;;;;0.17;90.24;100287.48;129763;1096;23283;-63
2020/12/04 05:51:36;;;;;;;31.40;15.83;;;;;;;0.17;89.63;100287.48;129910;1102;23236;-63
2020/12/04 05:54:05;;;;;;;35.50;16.70;;;;;;;0.19;89.65;100295.36;129765;1096;23219;-63
2020/12/04 05:56:33;;;;;;;34.37;15.80;;;;;;;0.21;89.45;100290.67;127502;1102;27916;-62
2020/12/04 05:59:07;;;;;;;37.77;17.70;;;;;;;0.24;89.10;100296.53;129813;1096;23857;-63
2020/12/04 06:01:48;;;;;;;39.77;18.47;;;;;;;0.24;89.70;100293.84;129886;1096;23302;-64
2020/12/04 06:04:18;;;;;;;35.40;17.23;;;;;;;0.25;90.19;100300.88;129768;1096;23171;-64
2020/12/04 06:06:48;;;;;;;41.40;18.37;;;;;;;0.24;90.53;100304.56;129819;1096;23205;-64
2020/12/04 06:09:16;;;;;;;36.37;16.50;;;;;;;0.26;89.80;100302.55;129760;1102;23181;-63
2020/12/04 06:11:44;;;;;;;35.70;17.00;;;;;;;0.29;90.54;100307.55;129868;1102;23234;-63
2020/12/04 06:14:18;;;;;;;33.20;15.20;;;;;;;0.30;89.39;100303.86;129513;1096;23207;-63
2020/12/04 06:17:01;;;;;;;44.57;18.50;;;;;;;0.31;89.52;100305.53;129908;1102;23188;-64
2020/12/04 06:19:32;;;;;;;35.67;16.07;;;;;;;0.35;90.32;100311.39;129834;1096;23201;-64
2020/12/04 06:22:10;;;;;;;39.33;18.47;;;;;;;0.38;90.72;100313.73;129980;1096;23193;-63
2020/12/04 06:24:54;;;;;;;37.00;17.45;;;;;;;0.41;89.12;100307.20;129764;1096;23397;-63
2020/12/04 06:27:46;;;;;;;40.45;19.00;;;;;;;0.32;89.39;100299.17;129921;1097;24227;-63
2020/12/04 06:30:24;;;;;;;40.70;20.10;;;;;;;0.42;89.49;100317.75;129792;1096;23298;-63
2020/12/04 06:32:53;;;;;;;46.67;20.90;;;;;;;0.41;90.33;100320.60;129955;1101;23195;-63
2020/12/04 06:35:52;;;;;;;33.67;15.93;;;;;;;0.43;89.39;100321.27;129755;1096;23248;-64
2020/12/04 06:38:43;;;;;;;35.93;17.03;;;;;;;0.46;89.98;100323.58;129507;1099;23172;-63
2020/12/04 06:41:27;;;;;;;35.50;16.00;;;;;;;0.47;89.40;100326.09;129446;1098;23286;-63
2020/12/04 06:44:07;;;;;;;32.27;15.97;;;;;;;0.52;90.09;100333.62;129548;1105;23264;-62
2020/12/04 06:46:41;;;;;;;30.40;13.80;;;;;;;0.54;89.29;100328.92;129377;1099;23225;-63
2020/12/04 06:49:22;;;;;;;34.00;15.65;;;;;;;0.59;89.15;100330.06;129552;1100;23218;-63
2020/12/04 06:52:03;;;;;;;37.17;16.27;;;;;;;0.63;90.40;100334.07;129458;1100;23364;-63
2020/12/04 06:54:32;;;;;;;35.80;16.87;;;;;;;0.66;89.34;100330.21;129554;1100;23216;-63
2020/12/04 06:56:59;;;;;;;34.73;16.97;;;;;;;0.64;89.23;100330.38;129404;1104;23181;-62
2020/12/04 06:59:39;;;;;;;41.55;19.65;;;;;;;0.64;89.66;100345.64;129522;1101;23329;-62
2020/12/04 07:02:11;;;;;;;37.60;17.00;;;;;;;0.66;89.17;100348.98;129357;1100;24136;-62
2020/12/04 07:04:40;;;;;;;35.97;15.97;;;;;;;0.67;89.88;100350.66;129578;1105;23278;-62
2020/12/04 07:07:14;;;;;;;37.85;15.50;;;;;;;0.70;89.48;100351.16;129443;1100;23502;-61
2020/12/04 07:09:52;;;;;;;41.63;17.23;;;;;;;0.72;90.05;100350.14;129532;1100;23351;-61
2020/12/04 07:12:21;;;;;;;43.70;17.95;;;;;;;0.73;89.13;100336.53;129464;1105;23294;-62
2020/12/04 07:14:53;;;;;;;44.57;20.60;;;;;;;0.74;88.65;100340.05;129666;1099;23213;-62
2020/12/04 07:17:24;;;;;;;40.05;18.05;;;;;;;0.75;89.94;100339.05;129839;1096;23255;-63
2020/12/04 07:19:53;;;;;;;42.75;19.15;;;;;;;0.73;89.00;100339.22;129935;1096;23187;-62
2020/12/04 07:22:22;;;;;;;36.57;17.70;;;;;;;0.75;89.04;100347.92;129817;1096;23221;-62
2020/12/04 07:24:50;;;;;;;42.23;18.00;;;;;;;0.77;89.76;100351.28;129957;1096;23255;-62
2020/12/04 07:27:19;;;;;;;38.00;17.40;;;;;;;0.79;88.87;100351.94;129752;1096;24512;-62
2020/12/04 07:29:46;;;;;;;40.95;18.95;;;;;;;0.82;89.27;100350.77;129926;1097;23172;-62
2020/12/04 07:32:14;;;;;;;39.50;18.17;;;;;;;0.84;89.84;100359.48;129803;1095;23200;-62
2020/12/04 07:34:46;;;;;;;48.75;21.55;;;;;;;0.85;88.75;100356.63;129879;1096;23281;-62
2020/12/04 07:37:14;;;;;;;46.00;21.65;;;;;;;0.86;89.24;100360.98;126223;1101;23350;-62
2020/12/04 07:39:42;;;;;;;43.55;20.05;;;;;;;0.87;89.25;100362.63;125501;1096;23348;-59
2020/12/04 07:42:11;;;;;;;49.10;21.30;;;;;;;0.86;89.07;100362.82;129911;1095;23247;-60
2020/12/04 07:44:42;;;;;;;49.87;20.80;;;;;;;0.88;89.64;100366.14;129785;1102;23209;-61
2020/12/04 07:47:14;;;;;;;46.35;21.35;;;;;;;0.88;89.25;100358.09;129958;1096;23351;-61
2020/12/04 07:49:46;;;;;;;49.50;19.47;;;;;;;0.88;88.41;100366.98;129818;1096;23966;-61
2020/12/04 07:52:21;;;;;;;41.90;18.60;;;;;;;0.88;88.50;100363.45;129880;1096;24195;-61
2020/12/04 07:54:54;;;;;;;54.30;21.60;;;;;;;0.89;89.18;100357.92;129746;1096;23183;-61
2020/12/04 07:57:27;;;;;;;54.10;22.17;;;;;;;0.90;88.78;100364.12;129882;1102;24239;-61
2020/12/04 07:59:56;;;;;;;54.37;25.27;;;;;;;0.90;88.05;100370.33;129780;1096;23337;-61
2020/12/04 08:02:25;;;;;;;47.75;22.10;;;;;;;0.91;88.56;100363.11;129945;1096;23208;-61
2020/12/04 08:04:53;;;;;;;53.03;22.57;;;;;;;0.91;88.86;100357.75;129821;1102;23305;-61
2020/12/04 08:07:21;;;;;;;55.20;22.05;;;;;;;0.90;88.29;100356.91;129938;1095;23238;-61
2020/12/04 08:09:48;;;;;;;51.23;20.63;;;;;;;0.93;88.98;100358.41;129747;1093;23247;-61
2020/12/04 08:12:34;;;;;;;48.65;19.30;;;;;;;0.93;88.52;100356.56;130037;1093;24148;-61
2020/12/04 08:15:03;;;;;;;50.15;20.30;;;;;;;0.96;89.20;100360.75;129888;1093;23219;-61
2020/12/04 08:17:31;;;;;;;54.40;24.00;;;;;;;0.99;89.00;100363.92;129927;1101;23159;-61
2020/12/04 08:20:18;;;;;;;61.50;23.50;;;;;;;1.03;88.05;100372.44;129779;1093;23167;-61
2020/12/04 08:22:49;;;;;;;55.80;24.90;;;;;;;1.06;89.27;100378.30;129917;1096;23180;-61
2020/12/04 08:25:24;;;;;;;53.07;23.23;;;;;;;1.07;88.73;100376.45;129779;1092;23164;-61
2020/12/04 08:27:53;;;;;;;51.10;22.35;;;;;;;1.10;88.64;100388.69;129824;1096;23283;-61
2020/12/04 08:30:32;;;;;;;54.90;24.00;;;;;;;1.10;88.33;100370.73;129778;1093;23167;-61
2020/12/04 08:33:03;;;;;;;55.05;21.15;;;;;;;1.15;87.95;100379.11;130080;1099;23260;-61
2020/12/04 08:35:39;;;;;;;50.40;20.27;;;;;;;1.15;88.23;100378.27;129930;1093;23229;-61
2020/12/04 08:38:14;;;;;;;45.20;20.77;;;;;;;1.16;88.73;100370.02;129899;1093;23825;-61
2020/12/04 08:40:49;;;;;;;50.87;21.43;;;;;;;1.16;88.34;100370.02;129841;1093;23276;-61
2020/12/04 08:43:18;;;;;;;59.70;26.83;;;;;;;1.15;88.72;100372.91;129973;1093;23199;-61
2020/12/04 08:45:47;;;;;;;56.40;23.65;;;;;;;1.15;88.82;100368.38;129960;1099;23206;-61
2020/12/04 08:48:24;;;;;;;49.80;22.17;;;;;;;1.16;87.81;100361.12;129911;1095;23281;-61
2020/12/04 08:50:52;;;;;;;;;;;;;;;1.15;87.88;100370.22;129858;1093;23174;-61
2020/12/04 08:53:21;;;;;;;44.40;20.70;;;;;;;1.16;88.49;100369.18;129944;1100;21377;-61
2020/12/04 08:55:55;;;;;;;44.17;20.73;;;;;;;1.17;88.75;100371.69;129810;1093;23166;-61
2020/12/04 08:58:25;;;;;;;51.15;21.60;;;;;;;1.20;87.99;100365.14;130073;1093;23185;-61
2020/12/04 09:00:53;;;;;;;47.33;19.87;;;;;;;1.21;88.36;100372.18;129738;1100;23189;-62
2020/12/04 09:03:30;;;;;;;49.83;21.93;;;;;;;1.22;88.09;100373.86;129924;1093;24273;-62
2020/12/04 09:05:58;;;;;;;45.50;20.80;;;;;;;1.22;87.53;100369.33;129879;1098;23210;-62
2020/12/04 09:08:25;;;;;;;44.47;20.40;;;;;;;1.24;88.40;100377.20;130122;1098;23241;-62
2020/12/04 09:10:52;;;;;;;55.63;24.33;;;;;;;1.24;88.03;100371.83;130105;1098;23224;-62
2020/12/04 09:13:20;;;;;;;53.77;22.20;;;;;;;1.25;88.24;100376.19;130023;1093;24182;-62
2020/12/04 09:15:48;;;;;;;46.00;20.53;;;;;;;1.29;88.20;100370.30;130124;1093;23276;-62
2020/12/04 09:18:16;;;;;;;41.07;19.00;;;;;;;1.31;87.74;100370.94;130022;1093;23161;-62
2020/12/04 09:20:44;;;;;;;36.70;16.85;;;;;;;1.32;87.18;100364.55;130059;1099;23272;-62
2020/12/04 09:23:11;;;;;;;38.30;17.87;;;;;;;1.32;87.83;100366.41;129932;1093;23228;-62
2020/12/04 09:25:39;;;;;;;44.20;19.83;;;;;;;1.31;88.27;100364.73;130186;1093;23194;-62
2020/12/04 09:28:16;;;;;;;44.73;21.27;;;;;;;1.29;88.12;100370.30;129868;1093;23225;-62
2020/12/04 09:30:44;;;;;;;46.77;20.43;;;;;;;1.27;87.70;100366.12;130067;1093;23260;-63
2020/12/04 09:33:11;;;;;;;49.80;20.63;;;;;;;1.26;88.21;100357.23;130060;1098;23945;-62
2020/12/04 09:35:39;;;;;;;38.77;18.03;;;;;;;1.29;87.30;100366.78;130113;1093;23788;-62
2020/12/04 09:38:06;;;;;;;43.70;17.60;;;;;;;1.31;87.85;100359.36;129873;1093;23172;-62
2020/12/04 09:40:36;;;;;;;36.80;16.53;;;;;;;1.32;87.22;100358.34;129993;1096;24073;-62
2020/12/04 09:43:04;;;;;;;39.60;17.55;;;;;;;1.32;87.72;100344.92;129820;1094;23162;-62
2020/12/04 09:45:32;;;;;;;39.87;17.57;;;;;;;1.31;87.22;100349.45;130182;1099;23171;-62
2020/12/04 09:47:59;;;;;;;40.73;19.80;;;;;;;1.32;87.99;100347.61;129987;1093;23264;-62
2020/12/04 09:50:28;;;;;;;32.55;16.30;;;;;;;1.32;87.57;100344.92;130204;1093;23244;-62
2020/12/04 09:52:56;;;;;;;36.40;19.15;;;;;;;1.30;87.72;100353.16;129993;1093;23245;-62
2020/12/04 09:55:25;;;;;;;35.23;17.57;;;;;;;1.30;88.33;100355.84;129934;1101;23149;-62
2020/12/04 09:57:56;;;;;;;35.03;17.10;;;;;;;1.33;87.57;100357.34;129876;1094;23162;-62
2020/12/04 10:00:24;;;;;;;37.50;17.40;;;;;;;1.32;86.95;100353.81;130105;1093;23314;-62
2020/12/04 10:02:54;;;;;;;31.27;16.47;;;;;;;1.34;88.09;100359.84;130090;1093;23316;-62
2020/12/04 10:05:21;;;;;;;33.63;16.80;;;;;;;1.35;88.10;100358.00;129988;1093;23231;-62
2020/12/04 10:07:50;;;;;;;38.40;20.73;;;;;;;1.34;87.32;100364.38;129914;1101;23303;-62
2020/12/04 10:10:18;;;;;;;31.33;16.50;;;;;;;1.31;87.43;100368.25;129914;1093;23201;-62
2020/12/04 10:12:50;;;;;;;33.30;15.90;;;;;;;1.29;87.43;100369.47;130033;1099;24113;-62
2020/12/04 10:15:17;;;;;;;29.25;14.90;;;;;;;1.29;87.58;100372.16;129679;1093;23180;-62
2020/12/04 10:17:45;;;;;;;31.33;13.97;;;;;;;1.31;87.40;100367.41;130153;1099;23288;-62
2020/12/04 10:20:18;;;;;;;35.05;17.30;;;;;;;1.29;87.50;100364.94;129976;1099;23236;-62
2020/12/04 10:22:47;;;;;;;33.10;15.23;;;;;;;1.30;88.05;100363.89;130098;1093;23328;-62
2020/12/04 10:25:15;;;;;;;31.83;15.33;;;;;;;1.34;86.76;100370.59;129897;1093;23166;-62
2020/12/04 10:27:42;;;;;;;37.03;19.20;;;;;;;1.35;86.95;100363.37;130049;1093;23163;-61
2020/12/04 10:30:10;;;;;;;36.67;18.77;;;;;;;1.34;87.40;100357.16;130017;1093;23171;-62
2020/12/04 10:32:37;;;;;;;39.37;19.97;;;;;;;1.35;87.38;100349.95;130152;1099;23690;-63
2020/12/04 10:35:07;;;;;;;39.05;18.40;;;;;;;1.33;87.43;100354.65;129979;1093;23337;-62
2020/12/04 10:37:34;;;;;;;47.37;23.10;;;;;;;1.32;86.76;100344.92;129990;1101;23160;-62
2020/12/04 10:40:02;;;;;;;46.00;19.30;;;;;;;1.33;87.21;100346.59;129964;1093;24204;-63
2020/12/04 10:42:37;;;;;;;51.30;22.10;;;;;;;1.34;87.76;100342.91;129964;1092;23242;-63
2020/12/04 10:45:04;;;;;;;54.57;20.90;;;;;;;1.35;86.74;100344.58;129997;1098;23267;-62
2020/12/04 10:47:35;;;;;;;51.60;21.30;;;;;;;1.35;86.91;100348.09;130113;1093;23155;-62
2020/12/04 10:50:06;;;;;;;50.15;20.35;;;;;;;1.37;87.41;100334.50;130038;1093;24148;-62
2020/12/04 10:52:33;;;;;;;47.20;21.73;;;;;;;1.37;87.74;100342.55;130067;1099;23284;-63
2020/12/04 10:55:20;;;;;;;55.30;23.87;;;;;;;1.35;87.03;100340.05;129823;1093;24091;-64
2020/12/04 10:57:47;;;;;;;64.23;25.87;;;;;;;1.31;87.21;100344.09;130159;1093;23175;-61
2020/12/04 11:00:15;;;;;;;65.67;26.47;;;;;;;1.28;87.04;100341.78;130094;1093;23284;-61
2020/12/04 11:02:42;;;;;;;72.50;25.63;;;;;;;1.29;86.93;100337.25;129984;1093;24098;-61
2020/12/04 11:05:38;;;;;;;70.30;26.40;;;;;;;1.30;88.08;100339.73;129974;1101;23242;-61
2020/12/04 11:08:06;;;;;;;71.80;26.40;;;;;;;1.21;87.85;100329.23;130065;1093;24746;-62
2020/12/04 11:10:34;;;;;;;66.40;27.13;;;;;;;1.34;88.18;100342.91;130145;1098;23266;-62
2020/12/04 11:13:05;;;;;;;64.77;28.13;;;;;;;1.34;88.05;100342.91;130026;1098;23291;-62
2020/12/04 11:15:33;;;;;;;69.80;29.03;;;;;;;1.31;87.23;100338.72;130146;1092;23173;-62
2020/12/04 11:18:01;;;;;;;70.15;30.55;;;;;;;1.32;87.59;100342.24;129832;1093;23210;-62
2020/12/04 11:20:28;;;;;;;71.55;28.80;;;;;;;1.33;87.47;100350.12;129957;1095;23224;-61